Giacomo Marini

Scout - Palermo
3 Dez 2028
Sonntag
Verarbeitung

Persönlichkeit

Anpassungsfähigkeit (14) Ehrgeiz (4) Kontroverse (14) Loyalität (10) Druck (16) Professionalität (15) Fairness (4) Temperament (1)

Profil

Trainerstil Demokratisch
Lizenz Nationale B
Entschlossenheit 5
Menschenführung 9
Motivation 6
Disziplin 7
Arbeitszufriedenheit
100%
Ermüdung
0%
Rolle Scout
Gehalt 18.6K p/W
Vertrag 14.03.2029

Leistung

Verhalten Gut
Trainingseffektivität
50%
Spielerentwicklung
35%
Verletzungsprävention
25%
Taktische Umsetzung
60%

Letzte Ereignisse

Nahm an einer Scouting-Besprechung teil jetzt
Empfahl ein Transferziel jetzt
Empfahl ein Transferziel 7T her
Spieler begutachtet 7T her
Spieler begutachtet 7T her
Spieler begutachtet 7T her
Spieler begutachtet 7T her
Spieler begutachtet 7T her

Aktuell beobachtet

130
Spieler Verein Status Fähigkeit Vertrauen Beobachtet Zuletzt beobachtet Letzte Stimme
Riquelme Thompson-Jones Accrington Stanley Aktiv 117 / 120 40% 7 01.12.2028 -
Jan Bürger Northampton Town Aktiv 123 / 128 40% 5 01.12.2028 -
Azizbek To'lqinbekov Bunyodkor Aktiv 100 / 102 40% 8 01.12.2028 -
Trey Nyoni Rotherham United Aktiv 148 / 147 40% 13 28.11.2028 -
Kiani Inge Groningen Aktiv 113 / 125 40% 7 28.11.2028 -
Louis Page Leicester City Aktiv 142 / 145 40% 10 28.11.2028 -
Cheveyo Tsawa Club Brugge Aktiv 126 / 130 40% 3 25.11.2028 -
Rafael Mota Sporting CP Aktiv 125 / 122 40% 3 25.11.2028 -
Daniel Banjaqui Benfica Aktiv 131 / 135 40% 9 23.11.2028 -
Kwesi Sorotu Badori Berekum Chelsea Aktiv 104 / 109 40% 5 23.11.2028 -
Bernardo Lima Porto Aktiv 115 / 130 40% 1 23.11.2028 -
Federico Matarán Giana Erminio Aktiv 106 / 122 40% 8 22.11.2028 -
Salvador Blopá Wolverhampton Aktiv 132 / 128 40% 2 22.11.2028 -
Johan Solstad-Nøis Tromso Aktiv 92 / 104 40% 5 21.11.2028 -
Noah Markmann Esbjerg Aktiv 127 / 128 40% 2 21.11.2028 -
Andrija Bulatović Chamois Niortais Aktiv 134 / 135 40% 3 21.11.2028 -
Eman Košpo Zorya Aktiv 115 / 109 40% 2 19.11.2028 -
Davinchi Getafe Aktiv 133 / 132 40% 2 19.11.2028 -
Andrey Ivlev Nizhniy Novgorod Aktiv 128 / 118 40% 4 13.11.2028 -
Martim Cunha Porto Aktiv 116 / 118 40% 6 12.11.2028 -
Tyson Pearce St. Louis CITY SC Aktiv 84 / 93 40% 7 12.11.2028 -
Máximo Munarriz San Telmo Aktiv 98 / 99 40% 8 10.11.2028 -
Snyder Brunell Seattle Sounders Aktiv 93 / 94 40% 6 07.11.2028 -
Celías Ingenthron Platense Aktiv 116 / 126 40% 6 06.11.2028 -
Mateo Caballero Defensor Sporting Aktiv 112 / 102 40% 4 06.11.2028 -
Felipe Pujol Vélez Aktiv 122 / 123 40% 2 06.11.2028 -
Filip Reshane Stabaek Aktiv 92 / 101 40% 2 04.11.2028 -
Máximo Magnoli Ferro Carril Oeste Aktiv 102 / 106 40% 4 03.11.2028 -
Matteo Palma Udinese Aktiv 136 / 144 40% 13 02.11.2028 -
Tyler Fletcher Rotherham United Aktiv 120 / 128 40% 4 02.11.2028 -
Matías Satas Grimsby Town Aktiv 103 / 112 40% 2 02.11.2028 -
Diego León Rotherham United Aktiv 121 / 130 40% 6 29.10.2028 -
Miguel Figueiredo Benfica Aktiv 128 / 133 40% 4 27.10.2028 -
Pietro La Torre Queens Park Rangers Aktiv 108 / 108 40% 2 26.10.2028 -
David Weiss Omonoia Aktiv 97 / 103 40% 1 21.10.2028 -
Giovanni Leoni Lincoln City Aktiv 153 / 150 40% 7 18.10.2028 -
Björn Hedlöf Helsingborg Aktiv 103 / 95 40% 3 16.10.2028 -
Aarón Martín Al-Qadisiyah Aktiv 124 / 124 40% 4 16.10.2028 -
Tobías Ramírez River Plate Aktiv 122 / 135 40% 8 15.10.2028 -
Facundo Balatti Penarol Aktiv 97 / 103 40% 3 11.10.2028 -
Agustín Medina Lanús Aktiv 111 / 131 40% 9 07.10.2028 -
Chris Rigg West Ham United Aktiv 143 / 148 40% 1 05.10.2028 -
Matías Magdaleno Estudiantes Aktiv 101 / 119 40% 3 30.09.2028 -
Muminhon Bahodirxonov Neftchi Aktiv 88 / 95 40% 1 27.09.2028 -
Tobías Andrada River Plate Aktiv 116 / 119 40% 2 25.09.2028 -
Fabio Rispoli Como Aktiv 126 / 126 40% 4 20.09.2028 -
Andrei Racu Kasimpasa Aktiv 94 / 98 40% 1 20.09.2028 -
Alejandro Almaraz NK Celje Aktiv 122 / 131 40% 1 19.09.2028 -
Moses Sesay Southampton Aktiv 120 / 120 40% 1 19.09.2028 -
Rhys Chadwick Blackpool Aktiv 116 / 114 40% 1 18.09.2028 -
Lautaro Dufur Juventud Aktiv 91 / 113 40% 4 16.09.2028 -
Germán Barbas Racing Santander Aktiv 117 / 126 40% 2 12.09.2028 -
Felipe Obradovich Ferro Carril Oeste Aktiv 108 / 115 40% 2 10.09.2028 -
Sergio Martínez Real Madrid Aktiv 117 / 133 40% 2 08.09.2028 -
Santiago Espíndola River Plate Aktiv 115 / 126 40% 2 04.09.2028 -
Christos Mouzakitis Hull City Aktiv 147 / 147 40% 6 31.08.2028 -
Ezra Mayers West Ham United Aktiv 135 / 137 40% 2 29.08.2028 -
Ridgeciano Haps Audace Cerignola Bericht bereit 122 / 114 69% 1 28.08.2028 -
Axel Tape Bayer Leverkusen Aktiv 140 / 141 40% 1 28.08.2028 -
Federico Nardin Willem II Aktiv 110 / 108 40% 1 24.08.2028 -
Valentín Loza Defensa y Justicia Aktiv 96 / 118 40% 1 21.08.2028 -
Diego Cheuquepal Racing Aktiv 107 / 114 40% 1 21.08.2028 -
Diego Vargas Universidad de Concepcion Aktiv 84 / 92 40% 4 17.08.2028 -
Nicolò Moranduzzo Renate Aktiv 91 / 103 40% 1 17.08.2028 -
Ernie Weaver Sheffield Wednesday Aktiv 118 / 124 40% 1 16.08.2028 -
Sascha Britschgi AC Milan Aktiv 127 / 133 40% 3 15.08.2028 -
Josh Stephenson Brentford Aktiv 126 / 122 40% 4 11.08.2028 -
Mats Egbring Heerenveen Aktiv 114 / 115 40% 1 09.08.2028 -
Ludovico Del Sorbo Sorrento Bericht bereit 126 / 127 69% 1 07.08.2028 -
Lamine Bèye Portimonense Aktiv 120 / 128 40% 2 04.08.2028 -
Veljko Milosavljević Bournemouth Aktiv 143 / 149 40% 1 04.08.2028 -
Ronan Kpakio AC Milan Aktiv 122 / 128 40% 3 03.08.2028 -
Nazareno Roselli Defensa y Justicia Aktiv 122 / 115 40% 1 01.08.2028 -
Andrea Luongo Trento Aktiv 105 / 107 40% 1 25.07.2028 -
Micah Mbick Derby County Aktiv 117 / 128 40% 1 25.07.2028 -
Gabe Forsyth Colchester United Aktiv 107 / 116 40% 1 25.07.2028 -
Seydou Fofana Pacos de Ferreira Aktiv 102 / 114 40% 3 22.07.2028 -
Adam Boufandar Pro Vercelli Aktiv 93 / 100 40% 1 22.07.2028 -
Jofre Torrents Ajax Aktiv 133 / 136 40% 1 22.07.2028 -
Vasilije Novičić IMT Aktiv 107 / 117 40% 2 19.07.2028 -
Olivier Leroux Mouscron Aktiv 98 / 114 40% 3 15.07.2028 -
Maxim Radchenko Rostov Aktiv 87 / 99 40% 1 11.07.2028 -
Ayden Heaven Portsmouth Aktiv 145 / 154 40% 1 10.06.2028 -
Andrea Cogoni Cosenza Aktiv 115 / 116 40% 1 08.06.2028 -
Musa Danjuma Umraniyespor Aktiv 102 / 102 40% 1 06.06.2028 -
Josh Nichols Oldham Athletic Aktiv 128 / 125 40% 1 06.06.2028 -
Augusto Bando Ascoli Aktiv 115 / 123 40% 1 05.06.2028 -
Gideon Manaseh Ikorodu City Aktiv 98 / 98 40% 3 04.06.2028 -
Alessio Insignito Spezia Aktiv 99 / 112 40% 5 03.06.2028 -
Joel Ezra Enyimba Aktiv 103 / 107 40% 8 02.06.2028 -
Nicolas Sport Recife Aktiv 113 / 107 40% 3 31.01.2028 -
Mao Hosoya Santos Aktiv 134 / 135 67% 1 01.01.2028 -
Bitello Universidad de Chile Aktiv 135 / 135 68% 1 01.01.2028 -
Victor Hernandez Santa Fe Aktiv 123 / 133 40% 5 31.12.2027 -
Yury Oyarzo Racing Aktiv 94 / 105 40% 5 30.12.2027 -
Jon Esenga IF Elfsborg Aktiv 86 / 93 40% 4 28.12.2027 -
Othniël Raterink Cagliari Aktiv 122 / 127 40% 3 28.12.2027 -
Jonny Shore New York City Aktiv 87 / 103 40% 6 27.12.2027 -
Niccolò Fortini Fiorentina Aktiv 126 / 133 40% 2 26.12.2027 -
Matias Siltanen Malmo FF Aktiv 136 / 130 40% 7 24.12.2027 -
Colin Guske Orlando City Aktiv 97 / 103 40% 2 24.12.2027 -
Olivier Mambwa Young Boys Aktiv 111 / 115 40% 1 22.12.2027 -
Frederik Damkjer Viborg Aktiv 96 / 99 40% 1 21.12.2027 -
Oscar Steinke Brånby Hammarby Aktiv 108 / 117 40% 7 15.12.2027 -
Pedro Vian Seewald Dolomiti Bellunesi Aktiv 94 / 108 40% 1 13.12.2027 -
Matvey Bardachev Zenit Aktiv 103 / 106 40% 3 12.12.2027 -
Tobiáš Pališčák Zlin Aktiv 90 / 105 40% 1 12.12.2027 -
Jorthy Mokio ADO Den Haag Aktiv 133 / 139 40% 1 07.12.2027 -
Amine Boukamir Charleroi Aktiv 102 / 107 40% 1 01.12.2027 -
Gonçalo Oliveira Benfica Aktiv 117 / 123 40% 1 26.11.2027 -
Agustín Obregón River Plate Aktiv 106 / 119 40% 1 24.11.2027 -
Ignacio Fernández Boston River Aktiv 95 / 105 40% 2 20.11.2027 -
Tobias Moi Lillestrom Aktiv 112 / 118 40% 3 18.11.2027 -
Juan Manuel Villalba Tigre Aktiv 119 / 130 40% 3 14.11.2027 -
Adrian Skogmar Malmo FF Aktiv 116 / 121 40% 4 13.11.2027 -
Nicolás Blanco San Lorenzo Aktiv 109 / 99 40% 1 24.10.2027 -
Fodé Sylla Sion Aktiv 117 / 122 40% 2 18.10.2027 -
Ángel Aguayo Sol de America Aktiv 88 / 105 40% 1 18.10.2027 -
Hugo Rojas Instituto Aktiv 94 / 110 40% 2 17.10.2027 -
Yiandro Raap Ilves Aktiv 92 / 99 40% 1 17.10.2027 -
Paulo Cardoso Sporting CP Aktiv 96 / 101 40% 1 07.06.2027 -
Marcel Ruiz Crystal Palace Aktiv 140 / 141 68% 1 01.06.2027 Befürworten
Zack Nelson Ternana Aktiv 99 / 99 40% 1 28.12.2026 -
Monty Batlhabane Polokwane City Aktiv 80 / 107 40% 1 28.12.2026 -
Mathys Tel Tottenham Aktiv 135 / 144 40% 1 17.12.2026 -
Tudor Mendel-Idowu Gubbio Aktiv 84 / 95 40% 1 16.12.2026 -
Artem Slesar Zorya Aktiv 105 / 114 40% 2 02.12.2026 -
Romelle Donovan Brentford Aktiv 111 / 131 40% 1 02.12.2026 -
Kirill Glebov CSKA Moscow Aktiv 124 / 130 40% 1 02.12.2026 -
Martin Gjorgievski Zbrojovka Brno Aktiv 99 / 111 40% 1 24.11.2026 -